Time;durP1;ratioP1;P1;durP2;ratioP2;P2;SDS_P1;SDS_P2;PMS_P1;PMS_P2;Temp;Humidity;BMP_temperature;BMP_pressure;BME280_temperature;BME280_humidity;BME280_pressure;Samples;Min_cycle;Max_cycle;Signal;HPM_P1;HPM_P2
2023/12/27 00:01:38;;;;;;;6.23;4.33;;;;;;;;;;5031713;28;20212;-63
2023/12/27 00:04:05;;;;;;;7.67;4.43;;;;;;;;;;5032237;28;20204;-62
2023/12/27 00:06:32;;;;;;;8.00;4.10;;;;;;;;;;5029099;28;20263;-62
2023/12/27 00:09:00;;;;;;;5.87;4.20;;;;;;;;;;5037054;28;20200;-62
2023/12/27 00:11:29;;;;;;;7.10;4.43;;;;;;;;;;5030283;28;20200;-62
2023/12/27 00:13:56;;;;;;;9.87;4.57;;;;;;;;;;5030809;28;20203;-62
2023/12/27 00:16:23;;;;;;;5.53;3.90;;;;;;;;;;5032809;28;20381;-63
2023/12/27 00:18:50;;;;;;;6.97;4.43;;;;;;;;;;5035285;28;20214;-62
2023/12/27 00:21:17;;;;;;;8.80;3.97;;;;;;;;;;5035043;28;20200;-63
2023/12/27 00:23:44;;;;;;;7.97;3.90;;;;;;;;;;5030545;28;20200;-63
2023/12/27 00:26:12;;;;;;;6.37;3.97;;;;;;;;;;5031202;28;20220;-63
2023/12/27 00:28:40;;;;;;;7.70;4.03;;;;;;;;;;5031867;28;20231;-62
2023/12/27 00:31:07;;;;;;;7.20;4.00;;;;;;;;;;5033311;28;20204;-62
2023/12/27 00:33:34;;;;;;;8.53;3.93;;;;;;;;;;5032071;28;20211;-62
2023/12/27 00:36:01;;;;;;;5.77;3.60;;;;;;;;;;5033045;28;20224;-64
2023/12/27 00:38:28;;;;;;;5.23;3.47;;;;;;;;;;5037022;28;20210;-63
2023/12/27 00:40:55;;;;;;;6.73;4.10;;;;;;;;;;5033651;28;20207;-62
2023/12/27 00:43:23;;;;;;;7.43;3.70;;;;;;;;;;5032792;28;20214;-63
2023/12/27 00:45:51;;;;;;;6.27;3.80;;;;;;;;;;5030369;28;20243;-62
2023/12/27 00:48:18;;;;;;;4.67;3.77;;;;;;;;;;5032753;28;20205;-63
2023/12/27 00:50:45;;;;;;;5.30;3.60;;;;;;;;;;5036985;28;20314;-62
2023/12/27 00:53:13;;;;;;;5.83;3.70;;;;;;;;;;5036930;28;20211;-63
2023/12/27 00:55:40;;;;;;;6.60;3.70;;;;;;;;;;5040284;28;20215;-62
2023/12/27 00:58:07;;;;;;;9.90;4.10;;;;;;;;;;5039256;28;20348;-62
2023/12/27 01:00:34;;;;;;;6.93;3.77;;;;;;;;;;5034256;28;20206;-62
2023/12/27 01:03:02;;;;;;;6.70;4.10;;;;;;;;;;5033516;28;20206;-62
2023/12/27 01:05:29;;;;;;;7.63;4.20;;;;;;;;;;5038439;28;20204;-63
2023/12/27 01:07:56;;;;;;;5.83;4.23;;;;;;;;;;5032796;28;20224;-63
2023/12/27 01:10:24;;;;;;;5.73;3.93;;;;;;;;;;5029556;28;20201;-62
2023/12/27 01:12:51;;;;;;;6.27;4.17;;;;;;;;;;5027155;28;20271;-63
2023/12/27 01:15:18;;;;;;;10.83;6.53;;;;;;;;;;5034627;28;20200;-62
2023/12/27 01:17:45;;;;;;;16.20;10.87;;;;;;;;;;5031556;28;20226;-62
2023/12/27 01:20:14;;;;;;;17.47;12.77;;;;;;;;;;5033800;28;20208;-62
2023/12/27 01:22:41;;;;;;;22.17;13.93;;;;;;;;;;5031583;28;20211;-62
2023/12/27 01:25:09;;;;;;;15.50;11.77;;;;;;;;;;5034145;28;20214;-63
2023/12/27 01:27:36;;;;;;;13.37;9.20;;;;;;;;;;5031383;28;20216;-62
2023/12/27 01:30:03;;;;;;;10.80;7.50;;;;;;;;;;5032421;28;20482;-62
2023/12/27 01:32:30;;;;;;;11.37;7.07;;;;;;;;;;5029454;28;20196;-62
2023/12/27 01:34:57;;;;;;;9.37;6.40;;;;;;;;;;5029665;28;20216;-62
2023/12/27 01:37:26;;;;;;;7.27;6.00;;;;;;;;;;5031320;28;20222;-63
2023/12/27 01:39:53;;;;;;;9.93;6.60;;;;;;;;;;5033274;28;20204;-62
2023/12/27 01:42:20;;;;;;;10.60;6.47;;;;;;;;;;5034672;28;20204;-62
2023/12/27 01:44:47;;;;;;;9.67;6.23;;;;;;;;;;5030623;28;20208;-62
2023/12/27 01:47:14;;;;;;;7.07;5.93;;;;;;;;;;5029392;28;20221;-62
2023/12/27 01:49:42;;;;;;;8.73;6.80;;;;;;;;;;5031830;28;20204;-61
2023/12/27 01:52:11;;;;;;;11.83;6.33;;;;;;;;;;5032657;28;20205;-63
2023/12/27 01:54:39;;;;;;;8.67;6.40;;;;;;;;;;5028931;28;20213;-62
2023/12/27 01:57:07;;;;;;;8.93;6.27;;;;;;;;;;5030769;28;20204;-63
2023/12/27 01:59:34;;;;;;;13.90;6.37;;;;;;;;;;5032452;28;20204;-63
2023/12/27 02:02:01;;;;;;;7.60;6.20;;;;;;;;;;5033397;28;20200;-61
2023/12/27 02:04:28;;;;;;;11.73;6.90;;;;;;;;;;5032574;28;20235;-63
2023/12/27 02:06:55;;;;;;;8.50;6.40;;;;;;;;;;5033711;28;20274;-61
2023/12/27 02:09:23;;;;;;;11.97;6.70;;;;;;;;;;5029544;28;20209;-63
2023/12/27 02:11:52;;;;;;;8.47;6.33;;;;;;;;;;5031083;28;20208;-62
2023/12/27 02:14:19;;;;;;;9.97;7.07;;;;;;;;;;5027780;28;20204;-62
2023/12/27 02:16:46;;;;;;;9.10;6.37;;;;;;;;;;5029813;28;20211;-62
2023/12/27 02:19:17;;;;;;;9.63;7.07;;;;;;;;;;5034665;28;20208;-62
2023/12/27 02:21:44;;;;;;;9.73;6.93;;;;;;;;;;5038867;28;20204;-62
2023/12/27 02:24:13;;;;;;;10.23;6.73;;;;;;;;;;5030174;28;20208;-61
2023/12/27 02:26:42;;;;;;;10.43;6.50;;;;;;;;;;5035846;28;20228;-62
2023/12/27 02:29:09;;;;;;;10.07;6.17;;;;;;;;;;5032354;28;20287;-62
2023/12/27 02:31:36;;;;;;;7.60;6.10;;;;;;;;;;5028429;28;20199;-63
2023/12/27 02:34:03;;;;;;;10.10;6.10;;;;;;;;;;5033921;28;20200;-62
2023/12/27 02:36:30;;;;;;;7.17;5.13;;;;;;;;;;5037892;28;20229;-62
2023/12/27 02:38:57;;;;;;;6.47;5.10;;;;;;;;;;5037769;28;20206;-62
2023/12/27 02:41:24;;;;;;;4.63;4.13;;;;;;;;;;5045900;28;20229;-67
2023/12/27 02:43:53;;;;;;;7.70;4.57;;;;;;;;;;5027129;28;20208;-67
2023/12/27 02:46:20;;;;;;;4.60;4.10;;;;;;;;;;5032629;28;20208;-67
2023/12/27 02:48:47;;;;;;;5.67;3.90;;;;;;;;;;5029549;28;20204;-68
2023/12/27 02:51:14;;;;;;;4.00;3.60;;;;;;;;;;5028913;28;20214;-67
2023/12/27 02:53:41;;;;;;;3.90;3.50;;;;;;;;;;5030362;28;20212;-67
2023/12/27 02:56:09;;;;;;;5.53;3.93;;;;;;;;;;5028649;28;20204;-67
2023/12/27 02:58:39;;;;;;;4.30;3.90;;;;;;;;;;5034433;28;20203;-67
2023/12/27 03:01:07;;;;;;;5.50;4.23;;;;;;;;;;5031718;28;20211;-67
2023/12/27 03:03:35;;;;;;;3.90;3.57;;;;;;;;;;5030051;28;20210;-67
2023/12/27 03:06:02;;;;;;;4.13;3.67;;;;;;;;;;5028170;28;20197;-67
2023/12/27 03:08:29;;;;;;;4.07;3.37;;;;;;;;;;5032720;28;20224;-68
2023/12/27 03:10:56;;;;;;;3.53;3.23;;;;;;;;;;5033614;28;20206;-68
2023/12/27 03:13:23;;;;;;;3.40;2.90;;;;;;;;;;5029338;28;20199;-67
2023/12/27 03:15:50;;;;;;;3.10;2.87;;;;;;;;;;5031468;28;20212;-67
2023/12/27 03:18:19;;;;;;;3.70;2.90;;;;;;;;;;5030255;28;20196;-67
2023/12/27 03:20:46;;;;;;;3.67;3.37;;;;;;;;;;5027982;28;20208;-67
2023/12/27 03:23:13;;;;;;;4.83;3.37;;;;;;;;;;5028747;28;20204;-67
2023/12/27 03:25:41;;;;;;;3.83;3.50;;;;;;;;;;5031224;28;20204;-67
2023/12/27 03:28:08;;;;;;;3.63;3.33;;;;;;;;;;5031900;28;20215;-67
2023/12/27 03:30:35;;;;;;;4.80;3.97;;;;;;;;;;5031137;28;20204;-68
2023/12/27 03:33:02;;;;;;;7.37;4.20;;;;;;;;;;5031131;28;20212;-68
2023/12/27 03:35:30;;;;;;;4.17;3.70;;;;;;;;;;5032707;28;20245;-67
2023/12/27 03:37:57;;;;;;;3.90;3.50;;;;;;;;;;5030249;28;20196;-67
2023/12/27 03:40:24;;;;;;;3.67;3.33;;;;;;;;;;5029950;28;20207;-67
2023/12/27 03:42:52;;;;;;;5.50;3.60;;;;;;;;;;5027906;28;20215;-67
2023/12/27 03:45:19;;;;;;;4.00;3.10;;;;;;;;;;5033967;28;20205;-68
2023/12/27 03:47:46;;;;;;;3.87;3.40;;;;;;;;;;5027744;28;20223;-66
2023/12/27 03:50:13;;;;;;;9.03;3.50;;;;;;;;;;5032348;28;20204;-62
2023/12/27 03:52:43;;;;;;;4.43;3.10;;;;;;;;;;5034114;28;20196;-63
2023/12/27 03:55:10;;;;;;;3.13;2.93;;;;;;;;;;5029062;28;20212;-62
2023/12/27 03:57:37;;;;;;;3.90;3.57;;;;;;;;;;5028431;28;20246;-62
2023/12/27 04:00:05;;;;;;;3.80;3.43;;;;;;;;;;5031611;28;20199;-62
2023/12/27 04:02:32;;;;;;;3.30;3.10;;;;;;;;;;5033928;28;20223;-62
2023/12/27 04:04:59;;;;;;;2.90;2.60;;;;;;;;;;5034193;28;20200;-62
2023/12/27 04:07:26;;;;;;;3.17;2.87;;;;;;;;;;5034229;28;20525;-62
2023/12/27 04:09:55;;;;;;;3.20;2.90;;;;;;;;;;5032411;28;20208;-62
2023/12/27 04:12:22;;;;;;;3.17;2.20;;;;;;;;;;5028811;28;20304;-62
2023/12/27 04:14:49;;;;;;;3.87;2.50;;;;;;;;;;5030225;28;20195;-63
2023/12/27 04:17:16;;;;;;;2.37;2.07;;;;;;;;;;5031066;28;20200;-62
2023/12/27 04:19:43;;;;;;;3.87;2.77;;;;;;;;;;5032254;28;20196;-63
2023/12/27 04:22:11;;;;;;;3.90;2.90;;;;;;;;;;5034674;28;20203;-62
2023/12/27 04:24:38;;;;;;;2.37;2.27;;;;;;;;;;5033923;28;20202;-63
2023/12/27 04:27:06;;;;;;;2.23;2.03;;;;;;;;;;5037477;28;20234;-63
2023/12/27 04:29:33;;;;;;;3.57;1.97;;;;;;;;;;5032531;28;20488;-62
2023/12/27 04:32:00;;;;;;;2.47;2.27;;;;;;;;;;5030398;28;20201;-63
2023/12/27 04:34:28;;;;;;;4.07;2.30;;;;;;;;;;5032070;28;20196;-62
2023/12/27 04:36:55;;;;;;;2.27;2.17;;;;;;;;;;5032993;28;20242;-62
2023/12/27 04:39:22;;;;;;;2.40;2.20;;;;;;;;;;5035080;28;20213;-62
2023/12/27 04:41:49;;;;;;;2.63;2.43;;;;;;;;;;5033122;28;20250;-62
2023/12/27 04:44:17;;;;;;;2.67;2.20;;;;;;;;;;5039004;28;20201;-62
2023/12/27 04:46:45;;;;;;;2.30;2.10;;;;;;;;;;5036026;28;20207;-62
2023/12/27 04:49:12;;;;;;;2.37;2.17;;;;;;;;;;5037448;28;20203;-63
2023/12/27 04:51:39;;;;;;;2.07;1.97;;;;;;;;;;5030762;28;20208;-62
2023/12/27 04:54:06;;;;;;;2.57;2.37;;;;;;;;;;5033387;28;20204;-63
2023/12/27 04:56:34;;;;;;;2.07;1.97;;;;;;;;;;5042925;28;20200;-62
2023/12/27 04:59:01;;;;;;;2.10;2.00;;;;;;;;;;5038867;28;20196;-62
2023/12/27 05:01:29;;;;;;;2.70;2.10;;;;;;;;;;5033952;28;20207;-67
2023/12/27 05:03:56;;;;;;;1.93;1.80;;;;;;;;;;5033169;28;20196;-67
2023/12/27 05:06:23;;;;;;;4.07;2.47;;;;;;;;;;5029661;28;20208;-68
2023/12/27 05:08:50;;;;;;;2.13;2.00;;;;;;;;;;5031551;28;20235;-68
2023/12/27 05:11:18;;;;;;;2.43;2.10;;;;;;;;;;5030034;28;20200;-68
2023/12/27 05:13:46;;;;;;;2.27;2.00;;;;;;;;;;5033054;28;20231;-67
2023/12/27 05:16:14;;;;;;;2.60;2.40;;;;;;;;;;5029535;28;20200;-68
2023/12/27 05:18:43;;;;;;;2.70;2.30;;;;;;;;;;5036307;28;20200;-68
2023/12/27 05:21:10;;;;;;;2.13;1.93;;;;;;;;;;5033614;28;20426;-66
2023/12/27 05:23:38;;;;;;;2.37;2.17;;;;;;;;;;5032555;28;20204;-67
2023/12/27 05:26:05;;;;;;;2.50;2.30;;;;;;;;;;5036573;28;20208;-67
2023/12/27 05:28:33;;;;;;;3.33;2.67;;;;;;;;;;5030211;28;20216;-67
2023/12/27 05:31:00;;;;;;;2.77;2.07;;;;;;;;;;5033213;28;20206;-67
2023/12/27 05:33:27;;;;;;;2.77;2.20;;;;;;;;;;5038333;28;20203;-67
2023/12/27 05:35:56;;;;;;;2.30;2.10;;;;;;;;;;5032883;28;20251;-67
2023/12/27 05:38:23;;;;;;;2.10;1.90;;;;;;;;;;5033015;28;20196;-67
2023/12/27 05:40:50;;;;;;;2.83;2.30;;;;;;;;;;5032361;28;20266;-67
2023/12/27 05:43:17;;;;;;;2.40;2.20;;;;;;;;;;5032585;28;20200;-67
2023/12/27 05:45:44;;;;;;;3.23;2.37;;;;;;;;;;5029781;28;20290;-67
2023/12/27 05:48:12;;;;;;;2.40;2.20;;;;;;;;;;5032797;28;20216;-67
2023/12/27 05:50:39;;;;;;;2.77;2.50;;;;;;;;;;5036092;28;20216;-67
2023/12/27 05:53:09;;;;;;;2.90;2.60;;;;;;;;;;5032321;28;20200;-67
2023/12/27 05:55:36;;;;;;;4.57;2.43;;;;;;;;;;5035558;28;20232;-67
2023/12/27 05:58:04;;;;;;;3.00;2.33;;;;;;;;;;5031229;28;20193;-67
2023/12/27 06:00:31;;;;;;;2.43;2.20;;;;;;;;;;5030968;28;20220;-67
2023/12/27 06:02:58;;;;;;;2.53;2.10;;;;;;;;;;5038367;28;20210;-67
2023/12/27 06:05:25;;;;;;;2.73;2.20;;;;;;;;;;5037947;28;20233;-67
2023/12/27 06:07:52;;;;;;;2.60;2.17;;;;;;;;;;5036846;28;20314;-67
2023/12/27 06:10:21;;;;;;;2.47;2.00;;;;;;;;;;5035148;28;20208;-68
2023/12/27 06:12:48;;;;;;;3.67;2.20;;;;;;;;;;5033710;28;20209;-63
2023/12/27 06:15:16;;;;;;;2.93;1.90;;;;;;;;;;5028446;28;20204;-63
2023/12/27 06:17:43;;;;;;;5.33;2.47;;;;;;;;;;5030730;28;20212;-62
2023/12/27 06:20:10;;;;;;;2.57;2.03;;;;;;;;;;5032965;28;20211;-62
2023/12/27 06:22:37;;;;;;;2.30;2.20;;;;;;;;;;5030423;28;20204;-63
2023/12/27 06:25:04;;;;;;;3.47;2.10;;;;;;;;;;5032384;28;20196;-63
2023/12/27 06:27:33;;;;;;;6.07;1.90;;;;;;;;;;5036186;28;20200;-62
2023/12/27 06:30:00;;;;;;;3.73;1.90;;;;;;;;;;5031010;28;20215;-63
2023/12/27 06:32:27;;;;;;;2.87;1.80;;;;;;;;;;5036936;28;20223;-63
2023/12/27 06:34:55;;;;;;;3.10;1.60;;;;;;;;;;5026871;28;20200;-62
2023/12/27 06:37:22;;;;;;;2.13;1.80;;;;;;;;;;5033496;28;20204;-62
2023/12/27 06:39:49;;;;;;;1.50;1.40;;;;;;;;;;5030721;28;20206;-62
2023/12/27 06:42:16;;;;;;;2.03;1.50;;;;;;;;;;5032833;28;20206;-62
2023/12/27 06:44:45;;;;;;;1.73;1.60;;;;;;;;;;5032051;28;20291;-62
2023/12/27 06:47:12;;;;;;;2.47;1.60;;;;;;;;;;5030422;28;20207;-62
2023/12/27 06:49:40;;;;;;;2.17;1.60;;;;;;;;;;5030877;28;20235;-62
2023/12/27 06:52:07;;;;;;;3.93;1.50;;;;;;;;;;5031270;28;20226;-62
2023/12/27 06:54:34;;;;;;;4.93;1.60;;;;;;;;;;5032578;28;20200;-63
2023/12/27 06:57:03;;;;;;;1.30;1.20;;;;;;;;;;5032519;28;20223;-63
2023/12/27 06:59:30;;;;;;;2.60;1.43;;;;;;;;;;5030198;28;20318;-62
2023/12/27 07:01:58;;;;;;;1.30;1.20;;;;;;;;;;5031669;28;20204;-62
2023/12/27 07:04:25;;;;;;;3.33;1.60;;;;;;;;;;5029342;28;20206;-62
2023/12/27 07:06:52;;;;;;;2.13;1.30;;;;;;;;;;5033923;28;20206;-63
2023/12/27 07:09:20;;;;;;;5.17;1.50;;;;;;;;;;5035781;28;20227;-62
2023/12/27 07:11:47;;;;;;;3.00;1.63;;;;;;;;;;5037385;28;20204;-64
2023/12/27 07:14:14;;;;;;;3.70;1.80;;;;;;;;;;5030742;28;20206;-61
2023/12/27 07:16:41;;;;;;;3.50;1.83;;;;;;;;;;5030597;28;20210;-62
2023/12/27 07:19:09;;;;;;;4.00;1.70;;;;;;;;;;5028975;28;20196;-62
2023/12/27 07:21:36;;;;;;;2.77;1.80;;;;;;;;;;5029086;28;20231;-67
2023/12/27 07:24:04;;;;;;;6.00;2.00;;;;;;;;;;5026115;28;20196;-68
2023/12/27 07:26:31;;;;;;;3.17;1.60;;;;;;;;;;5029731;28;20204;-67
2023/12/27 07:28:58;;;;;;;3.80;1.83;;;;;;;;;;5035919;28;20426;-68
2023/12/27 07:31:25;;;;;;;5.40;2.00;;;;;;;;;;5030820;28;20204;-67
2023/12/27 07:33:52;;;;;;;9.50;2.20;;;;;;;;;;5034826;28;20211;-66
2023/12/27 07:36:21;;;;;;;4.47;1.90;;;;;;;;;;5031670;28;20234;-67
2023/12/27 07:38:48;;;;;;;2.67;1.70;;;;;;;;;;5029108;28;20201;-67
2023/12/27 07:41:15;;;;;;;4.77;1.70;;;;;;;;;;5031885;28;20214;-67
2023/12/27 07:43:42;;;;;;;6.70;2.20;;;;;;;;;;5035207;28;20208;-68
2023/12/27 07:46:10;;;;;;;4.63;2.10;;;;;;;;;;5031197;28;20212;-67
2023/12/27 07:48:37;;;;;;;3.43;1.90;;;;;;;;;;5035131;28;20234;-67
2023/12/27 07:51:04;;;;;;;5.40;2.00;;;;;;;;;;5035786;28;20210;-67
2023/12/27 07:53:33;;;;;;;4.27;2.00;;;;;;;;;;5032192;28;20199;-67
2023/12/27 07:56:00;;;;;;;5.53;1.97;;;;;;;;;;5027463;28;20204;-67
2023/12/27 07:58:27;;;;;;;3.23;1.90;;;;;;;;;;5029091;28;20200;-67
2023/12/27 08:00:54;;;;;;;2.93;2.03;;;;;;;;;;5033015;28;20207;-67
2023/12/27 08:03:22;;;;;;;7.83;2.50;;;;;;;;;;5033920;28;20200;-68
2023/12/27 08:05:49;;;;;;;4.43;1.97;;;;;;;;;;5033538;28;20214;-67
2023/12/27 08:08:16;;;;;;;2.60;2.20;;;;;;;;;;5033695;28;20211;-67
2023/12/27 08:10:44;;;;;;;4.17;2.47;;;;;;;;;;5038169;28;20203;-66
2023/12/27 08:13:11;;;;;;;4.53;2.40;;;;;;;;;;5035860;28;20210;-67
2023/12/27 08:15:40;;;;;;;3.93;2.40;;;;;;;;;;5030350;28;20239;-67
2023/12/27 08:18:07;;;;;;;4.70;2.20;;;;;;;;;;5037369;28;20196;-67
2023/12/27 08:20:34;;;;;;;4.47;2.37;;;;;;;;;;5030020;28;20196;-67
2023/12/27 08:23:01;;;;;;;7.10;2.70;;;;;;;;;;5029199;28;20204;-67
2023/12/27 08:25:28;;;;;;;6.03;2.23;;;;;;;;;;5033983;28;20294;-68
2023/12/27 08:27:56;;;;;;;5.03;2.33;;;;;;;;;;5039858;28;20212;-67
2023/12/27 08:30:24;;;;;;;6.83;2.50;;;;;;;;;;5028622;28;20228;-67
2023/12/27 08:32:51;;;;;;;4.80;2.37;;;;;;;;;;5030586;28;20200;-62
2023/12/27 08:35:18;;;;;;;5.40;3.07;;;;;;;;;;5032212;28;20521;-62
2023/12/27 08:37:45;;;;;;;4.17;2.47;;;;;;;;;;5026264;28;20212;-62
2023/12/27 08:40:13;;;;;;;5.73;2.40;;;;;;;;;;5031134;28;20200;-63
2023/12/27 08:42:40;;;;;;;3.67;2.20;;;;;;;;;;5033582;28;20208;-62
2023/12/27 08:45:09;;;;;;;5.13;2.37;;;;;;;;;;5037134;28;20222;-63
2023/12/27 08:47:36;;;;;;;4.33;2.33;;;;;;;;;;5030535;28;20207;-62
2023/12/27 08:50:03;;;;;;;4.50;2.70;;;;;;;;;;5039713;28;20208;-61
2023/12/27 08:52:30;;;;;;;5.47;2.33;;;;;;;;;;5035661;28;20200;-63
2023/12/27 08:54:58;;;;;;;5.47;2.40;;;;;;;;;;5022944;28;20212;-62
2023/12/27 08:57:25;;;;;;;4.07;2.57;;;;;;;;;;5029272;28;20204;-61
2023/12/27 08:59:52;;;;;;;3.23;2.23;;;;;;;;;;5038334;28;20192;-62
2023/12/27 09:02:21;;;;;;;5.07;2.40;;;;;;;;;;5040972;28;20203;-62
2023/12/27 09:04:48;;;;;;;4.90;2.20;;;;;;;;;;5027757;28;20208;-62
2023/12/27 09:07:15;;;;;;;6.63;3.23;;;;;;;;;;5033053;28;20211;-63
2023/12/27 09:09:42;;;;;;;5.93;3.07;;;;;;;;;;5032388;28;20235;-62
2023/12/27 09:12:09;;;;;;;4.23;2.50;;;;;;;;;;5021544;28;20208;-63
2023/12/27 09:14:39;;;;;;;7.70;2.80;;;;;;;;;;5016735;28;20215;-63
2023/12/27 09:17:06;;;;;;;3.70;2.30;;;;;;;;;;5018311;28;20278;-64
2023/12/27 09:19:35;;;;;;;6.90;3.30;;;;;;;;;;5027644;28;20202;-62
2023/12/27 09:22:02;;;;;;;4.03;2.60;;;;;;;;;;5018012;28;20207;-62
2023/12/27 09:24:29;;;;;;;4.47;2.57;;;;;;;;;;5024715;28;20327;-62
2023/12/27 09:26:57;;;;;;;4.37;2.53;;;;;;;;;;5033027;28;20215;-63
2023/12/27 09:29:24;;;;;;;4.13;2.80;;;;;;;;;;5031965;28;20274;-62
2023/12/27 09:31:51;;;;;;;5.13;2.87;;;;;;;;;;5030028;28;20208;-63
2023/12/27 09:34:19;;;;;;;4.87;2.53;;;;;;;;;;5037035;28;20202;-63
2023/12/27 09:36:47;;;;;;;4.77;2.50;;;;;;;;;;5028656;28;20236;-62
2023/12/27 09:39:15;;;;;;;5.23;2.50;;;;;;;;;;5040212;28;20200;-62
2023/12/27 09:41:42;;;;;;;5.20;2.53;;;;;;;;;;5028546;28;20212;-62
2023/12/27 09:44:10;;;;;;;4.23;2.37;;;;;;;;;;5027945;28;20200;-62
2023/12/27 09:46:39;;;;;;;3.67;2.70;;;;;;;;;;5026733;28;20258;-62
2023/12/27 09:49:06;;;;;;;2.70;2.20;;;;;;;;;;5029948;28;20224;-62
2023/12/27 09:51:33;;;;;;;4.43;2.60;;;;;;;;;;5031834;28;20197;-62
2023/12/27 09:54:02;;;;;;;5.30;2.50;;;;;;;;;;5032813;28;20214;-62
2023/12/27 09:56:30;;;;;;;4.53;2.33;;;;;;;;;;5032680;28;20196;-63
2023/12/27 09:58:58;;;;;;;5.87;2.37;;;;;;;;;;5028445;28;20208;-62
2023/12/27 10:01:25;;;;;;;4.00;2.30;;;;;;;;;;5036390;28;20198;-63
2023/12/27 10:03:55;;;;;;;4.70;2.43;;;;;;;;;;5029052;28;20214;-62
2023/12/27 10:06:26;;;;;;;4.83;2.50;;;;;;;;;;5028144;28;20214;-62
2023/12/27 10:08:53;;;;;;;5.27;2.60;;;;;;;;;;5033694;28;20232;-63
2023/12/27 10:11:21;;;;;;;5.03;2.30;;;;;;;;;;5037036;28;20211;-63
2023/12/27 10:13:49;;;;;;;4.20;2.50;;;;;;;;;;5028677;28;20199;-62
2023/12/27 10:16:16;;;;;;;3.23;2.03;;;;;;;;;;5018007;28;20203;-62
2023/12/27 10:18:45;;;;;;;6.40;2.40;;;;;;;;;;5016242;28;20701;-63
2023/12/27 10:21:13;;;;;;;2.47;2.10;;;;;;;;;;5016019;28;20346;-63
2023/12/27 10:23:40;;;;;;;3.83;2.50;;;;;;;;;;5025383;28;20238;-63
2023/12/27 10:26:07;;;;;;;3.93;2.23;;;;;;;;;;5033988;28;20208;-62
2023/12/27 10:28:36;;;;;;;4.97;2.30;;;;;;;;;;5034657;28;20400;-62
2023/12/27 10:31:05;;;;;;;2.43;1.90;;;;;;;;;;5030582;28;20230;-64
2023/12/27 10:33:41;;;;;;;5.20;2.30;;;;;;;;;;5024806;28;20215;-62
2023/12/27 10:36:08;;;;;;;4.67;2.30;;;;;;;;;;5013282;28;20239;-63
2023/12/27 10:38:35;;;;;;;3.30;2.03;;;;;;;;;;5015401;28;20203;-63
2023/12/27 10:41:04;;;;;;;3.60;2.27;;;;;;;;;;5019870;28;20200;-62
2023/12/27 10:43:32;;;;;;;5.00;2.50;;;;;;;;;;5033192;28;20212;-62
2023/12/27 10:46:01;;;;;;;5.27;2.00;;;;;;;;;;5042818;28;20235;-63
2023/12/27 10:48:32;;;;;;;4.63;2.43;;;;;;;;;;5036494;28;20208;-62
2023/12/27 10:50:59;;;;;;;7.07;2.57;;;;;;;;;;5031469;28;20230;-62
2023/12/27 10:53:31;;;;;;;3.60;2.27;;;;;;;;;;5030683;28;20207;-61
2023/12/27 10:56:00;;;;;;;4.53;1.93;;;;;;;;;;5019253;28;20209;-63
2023/12/27 10:58:29;;;;;;;5.03;2.10;;;;;;;;;;5022397;28;20216;-63
2023/12/27 11:00:57;;;;;;;6.60;2.30;;;;;;;;;;5017172;28;20200;-62
2023/12/27 11:03:28;;;;;;;5.23;2.63;;;;;;;;;;5014257;28;20208;-63
2023/12/27 11:05:56;;;;;;;3.73;2.20;;;;;;;;;;5014522;28;20303;-63
2023/12/27 11:08:24;;;;;;;3.17;1.80;;;;;;;;;;5017209;28;21374;-63
2023/12/27 11:10:52;;;;;;;4.13;2.20;;;;;;;;;;5015560;28;20216;-62
2023/12/27 11:13:21;;;;;;;4.23;2.10;;;;;;;;;;5013528;28;20200;-64
2023/12/27 11:15:48;;;;;;;7.20;2.60;;;;;;;;;;5015125;28;20210;-64
2023/12/27 11:18:16;;;;;;;5.57;2.40;;;;;;;;;;5013835;28;20204;-63
2023/12/27 11:20:47;;;;;;;4.30;2.20;;;;;;;;;;5016052;28;20340;-63
2023/12/27 11:23:14;;;;;;;4.70;2.40;;;;;;;;;;5014577;28;20203;-63
2023/12/27 11:25:42;;;;;;;4.80;2.00;;;;;;;;;;5015776;28;20208;-64
2023/12/27 11:28:09;;;;;;;4.90;2.53;;;;;;;;;;5014681;28;20208;-62
2023/12/27 11:30:38;;;;;;;4.40;2.50;;;;;;;;;;5017192;28;20239;-62
2023/12/27 11:33:06;;;;;;;4.90;2.20;;;;;;;;;;5013910;28;20223;-62
2023/12/27 11:35:34;;;;;;;7.03;2.37;;;;;;;;;;5015733;28;20236;-62
2023/12/27 11:38:15;;;;;;;5.10;2.30;;;;;;;;;;5013013;28;20204;-63
2023/12/27 11:40:44;;;;;;;4.57;2.50;;;;;;;;;;5015740;28;20204;-63
2023/12/27 11:43:11;;;;;;;7.60;2.37;;;;;;;;;;5014042;28;20251;-63
2023/12/27 11:45:56;;;;;;;4.93;2.67;;;;;;;;;;5014914;28;20204;-63
2023/12/27 11:48:24;;;;;;;6.27;2.37;;;;;;;;;;5012338;28;20277;-63
2023/12/27 11:50:51;;;;;;;7.50;2.47;;;;;;;;;;5013000;28;20224;-64
2023/12/27 11:53:20;;;;;;;4.83;2.17;;;;;;;;;;5011643;28;20215;-62
2023/12/27 11:55:48;;;;;;;6.50;2.80;;;;;;;;;;5011569;28;20207;-63
2023/12/27 11:58:15;;;;;;;5.53;2.37;;;;;;;;;;5013193;28;20307;-61
2023/12/27 12:00:43;;;;;;;6.23;2.50;;;;;;;;;;5013925;28;20204;-63
2023/12/27 12:03:16;;;;;;;5.60;2.77;;;;;;;;;;5018180;28;21030;-63
2023/12/27 12:05:49;;;;;;;6.20;2.30;;;;;;;;;;5011583;28;20203;-62
2023/12/27 12:08:21;;;;;;;4.67;2.30;;;;;;;;;;5013189;28;20222;-63
2023/12/27 12:11:05;;;;;;;4.57;2.10;;;;;;;;;;5014229;28;20254;-62
2023/12/27 12:13:32;;;;;;;8.00;2.57;;;;;;;;;;5019659;28;20212;-64
2023/12/27 12:15:59;;;;;;;4.73;2.23;;;;;;;;;;5012845;28;20692;-63
2023/12/27 12:18:27;;;;;;;4.90;2.20;;;;;;;;;;5013399;28;20209;-63
2023/12/27 12:20:54;;;;;;;5.17;2.10;;;;;;;;;;5027420;28;20290;-62
2023/12/27 12:23:22;;;;;;;5.43;2.10;;;;;;;;;;5028642;28;20295;-62
2023/12/27 12:25:49;;;;;;;7.53;2.27;;;;;;;;;;5034646;28;20203;-62
2023/12/27 12:28:16;;;;;;;7.30;2.63;;;;;;;;;;5029896;28;20203;-62
2023/12/27 12:30:47;;;;;;;7.70;2.47;;;;;;;;;;5041189;28;20216;-62
2023/12/27 12:33:14;;;;;;;7.20;2.40;;;;;;;;;;5031308;28;20278;-62
2023/12/27 12:35:41;;;;;;;7.40;2.30;;;;;;;;;;5031620;28;20246;-62
2023/12/27 12:38:08;;;;;;;4.87;2.03;;;;;;;;;;5027574;28;20213;-63
2023/12/27 12:40:37;;;;;;;7.20;2.50;;;;;;;;;;5031359;28;20196;-62
2023/12/27 12:43:04;;;;;;;6.87;2.60;;;;;;;;;;5029438;28;20250;-62
2023/12/27 12:45:33;;;;;;;5.23;2.53;;;;;;;;;;5025048;28;20208;-62
2023/12/27 12:48:00;;;;;;;5.50;2.43;;;;;;;;;;5022237;28;20201;-63
2023/12/27 12:50:27;;;;;;;6.87;2.20;;;;;;;;;;5029218;28;20216;-62
2023/12/27 12:52:54;;;;;;;4.80;2.20;;;;;;;;;;5032718;28;20224;-62
2023/12/27 12:55:28;;;;;;;4.53;2.10;;;;;;;;;;5035838;28;20204;-62
2023/12/27 12:57:57;;;;;;;4.63;2.23;;;;;;;;;;5033570;28;20215;-63
2023/12/27 13:00:24;;;;;;;5.87;2.40;;;;;;;;;;5031636;28;20229;-63
2023/12/27 13:02:54;;;;;;;4.97;2.47;;;;;;;;;;5031856;28;20232;-63
2023/12/27 13:05:22;;;;;;;8.03;2.50;;;;;;;;;;5034147;28;20204;-62
2023/12/27 13:07:49;;;;;;;4.57;2.97;;;;;;;;;;5035270;28;20208;-62
2023/12/27 13:10:16;;;;;;;6.40;2.70;;;;;;;;;;5030003;28;20224;-63
2023/12/27 13:12:43;;;;;;;5.40;2.43;;;;;;;;;;5024791;28;20197;-68
2023/12/27 13:15:13;;;;;;;6.00;2.50;;;;;;;;;;5029934;28;20287;-67
2023/12/27 13:17:41;;;;;;;7.60;2.53;;;;;;;;;;5030031;28;20203;-67
2023/12/27 13:20:09;;;;;;;5.90;2.50;;;;;;;;;;5027277;28;20208;-67
2023/12/27 13:22:36;;;;;;;6.53;2.20;;;;;;;;;;5034459;28;20204;-67
2023/12/27 13:25:04;;;;;;;6.53;2.13;;;;;;;;;;5031569;28;20210;-66
2023/12/27 13:27:31;;;;;;;6.80;2.47;;;;;;;;;;5029717;28;20287;-66
2023/12/27 13:29:58;;;;;;;5.00;2.50;;;;;;;;;;5033218;28;20227;-67
2023/12/27 13:32:27;;;;;;;5.33;2.10;;;;;;;;;;5039192;28;20235;-66
2023/12/27 13:34:54;;;;;;;5.07;2.30;;;;;;;;;;5032571;28;20203;-67
2023/12/27 13:37:21;;;;;;;8.63;2.57;;;;;;;;;;5031259;28;20204;-67
2023/12/27 13:39:49;;;;;;;3.63;1.97;;;;;;;;;;5033295;28;20299;-67
2023/12/27 13:42:16;;;;;;;6.93;2.43;;;;;;;;;;5028837;28;20207;-67
2023/12/27 13:44:43;;;;;;;5.00;2.50;;;;;;;;;;5030352;28;20208;-67
2023/12/27 13:47:10;;;;;;;7.63;2.23;;;;;;;;;;5026457;28;20205;-67
2023/12/27 13:49:39;;;;;;;7.23;2.60;;;;;;;;;;5032085;28;20208;-67
2023/12/27 13:52:06;;;;;;;5.10;2.10;;;;;;;;;;5032413;28;20230;-67
2023/12/27 13:54:33;;;;;;;4.93;2.10;;;;;;;;;;5030586;28;20204;-67
2023/12/27 13:57:00;;;;;;;4.57;2.00;;;;;;;;;;5031396;28;20291;-67
2023/12/27 13:59:27;;;;;;;5.17;2.47;;;;;;;;;;5036664;28;20196;-67
2023/12/27 14:01:56;;;;;;;5.93;2.30;;;;;;;;;;5028222;28;20207;-67
2023/12/27 14:04:23;;;;;;;5.53;2.43;;;;;;;;;;5027471;28;20231;-66
2023/12/27 14:06:52;;;;;;;5.13;2.20;;;;;;;;;;5024379;28;20215;-67
2023/12/27 14:09:19;;;;;;;5.70;2.00;;;;;;;;;;5030368;28;20200;-68
2023/12/27 14:11:46;;;;;;;5.83;2.40;;;;;;;;;;5032396;28;20227;-68
2023/12/27 14:14:13;;;;;;;4.17;1.80;;;;;;;;;;5028742;28;20204;-67
2023/12/27 14:16:43;;;;;;;6.83;2.13;;;;;;;;;;5032989;28;20202;-67
2023/12/27 14:19:10;;;;;;;7.57;2.07;;;;;;;;;;5036706;28;20262;-67
2023/12/27 14:21:37;;;;;;;12.40;2.30;;;;;;;;;;5033254;28;20206;-67
2023/12/27 14:24:07;;;;;;;6.57;2.20;;;;;;;;;;5011832;28;20204;-66
2023/12/27 14:26:36;;;;;;;6.33;2.13;;;;;;;;;;5011763;28;20422;-67
2023/12/27 14:29:04;;;;;;;6.40;2.47;;;;;;;;;;5012275;28;20204;-66
2023/12/27 14:31:31;;;;;;;6.23;2.20;;;;;;;;;;5011850;28;20228;-67
2023/12/27 14:33:59;;;;;;;5.70;2.10;;;;;;;;;;5012498;28;20216;-67
2023/12/27 14:36:26;;;;;;;5.63;2.30;;;;;;;;;;5009203;28;20290;-67
2023/12/27 14:39:04;;;;;;;4.77;2.53;;;;;;;;;;5010336;28;20211;-67
2023/12/27 14:41:32;;;;;;;4.53;2.33;;;;;;;;;;5024347;28;20196;-68
2023/12/27 14:44:00;;;;;;;5.70;2.60;;;;;;;;;;5034771;28;20196;-68
2023/12/27 14:46:30;;;;;;;5.70;2.10;;;;;;;;;;5034425;28;20204;-67